Time;durP1;ratioP1;P1;durP2;ratioP2;P2;SDS_P1;SDS_P2;PMS_P1;PMS_P2;Temp;Humidity;BMP_temperature;BMP_pressure;BME280_temperature;BME280_humidity;BME280_pressure;Samples;Min_cycle;Max_cycle;Signal;HPM_P1;HPM_P2
2021/09/06 00:00:01;;;;;;;1.00;0.95;;;20.70;58.80;;;;;;5064293;28;20643;-35
2021/09/06 00:02:28;;;;;;;0.98;0.88;;;20.70;58.80;;;;;;5064389;28;20041;-35
2021/09/06 00:04:54;;;;;;;0.98;0.88;;;20.60;58.90;;;;;;5064242;28;20389;-35
2021/09/06 00:07:20;;;;;;;0.77;0.77;;;20.60;58.80;;;;;;5063980;28;20105;-35
2021/09/06 00:09:50;;;;;;;1.42;1.13;;;20.60;58.80;;;;;;5064170;28;20021;-35
2021/09/06 00:12:16;;;;;;;0.73;0.70;;;20.60;58.80;;;;;;5064394;28;20504;-35
2021/09/06 00:14:42;;;;;;;1.00;0.88;;;20.50;58.90;;;;;;5064244;28;20029;-35
2021/09/06 00:17:08;;;;;;;1.00;0.90;;;20.50;59.00;;;;;;5062534;28;20029;-35
2021/09/06 00:19:34;;;;;;;1.10;1.00;;;20.50;59.10;;;;;;5043825;28;20026;-35
2021/09/06 00:22:01;;;;;;;0.82;0.82;;;20.50;59.10;;;;;;5058147;28;20036;-35
2021/09/06 00:24:27;;;;;;;1.20;1.10;;;20.50;59.00;;;;;;5062957;28;20037;-35
2021/09/06 00:26:53;;;;;;;2.38;1.00;;;20.40;59.20;;;;;;5063755;28;20044;-35
2021/09/06 00:29:19;;;;;;;0.93;0.90;;;20.40;58.80;;;;;;5063723;28;20092;-35
2021/09/06 00:31:45;;;;;;;0.90;0.90;;;20.40;58.90;;;;;;5063848;28;20107;-35
2021/09/06 00:34:11;;;;;;;1.00;0.90;;;20.40;58.80;;;;;;5063679;28;20028;-35
2021/09/06 00:36:38;;;;;;;1.20;0.80;;;20.40;58.70;;;;;;5063866;28;20025;-37
2021/09/06 00:39:04;;;;;;;1.15;0.90;;;20.30;58.90;;;;;;5063496;28;20278;-35
2021/09/06 00:41:30;;;;;;;0.82;0.82;;;20.30;59.00;;;;;;5063595;28;20025;-35
2021/09/06 00:43:56;;;;;;;0.77;0.77;;;20.30;58.90;;;;;;5063727;28;20052;-35
2021/09/06 00:46:23;;;;;;;1.10;1.00;;;20.30;59.30;;;;;;5063393;28;20178;-35
2021/09/06 00:48:49;;;;;;;1.10;1.00;;;20.30;59.20;;;;;;5063244;28;20037;-35
2021/09/06 00:51:16;;;;;;;0.95;0.88;;;20.20;59.40;;;;;;5063449;28;20040;-35
2021/09/06 00:53:43;;;;;;;1.10;1.00;;;20.20;59.20;;;;;;5063430;28;20092;-35
2021/09/06 00:56:09;;;;;;;1.13;1.03;;;20.20;59.10;;;;;;5063149;28;20064;-34
2021/09/06 00:58:36;;;;;;;1.10;1.00;;;20.20;58.90;;;;;;5045151;28;20044;-35
2021/09/06 01:01:02;;;;;;;0.88;0.88;;;20.10;58.90;;;;;;5045584;28;20057;-35
2021/09/06 01:03:28;;;;;;;1.20;1.10;;;20.20;59.00;;;;;;5063276;28;20041;-35
2021/09/06 01:05:55;;;;;;;1.25;1.15;;;20.10;58.90;;;;;;5063068;28;20092;-34
2021/09/06 01:08:21;;;;;;;1.00;0.90;;;20.10;58.90;;;;;;5062912;28;20048;-35
2021/09/06 01:10:47;;;;;;;1.20;1.10;;;20.10;59.10;;;;;;5063128;28;20036;-35
2021/09/06 01:13:14;;;;;;;1.13;1.02;;;20.00;58.90;;;;;;5063133;28;20029;-35
2021/09/06 01:15:40;;;;;;;1.30;1.10;;;20.00;58.80;;;;;;5062564;28;20036;-35
2021/09/06 01:18:06;;;;;;;1.10;1.00;;;20.00;59.20;;;;;;5063196;28;20735;-35
2021/09/06 01:20:32;;;;;;;1.00;0.88;;;20.00;59.90;;;;;;5060274;28;20544;-35
2021/09/06 01:22:58;;;;;;;1.20;1.10;;;20.00;60.60;;;;;;5063005;28;20031;-35
2021/09/06 01:25:24;;;;;;;1.08;0.90;;;20.00;60.20;;;;;;5052629;28;20025;-35
2021/09/06 01:27:51;;;;;;;1.10;1.00;;;20.00;60.00;;;;;;5042799;28;20550;-35
2021/09/06 01:30:17;;;;;;;1.10;1.00;;;20.00;60.10;;;;;;5024671;28;20033;-36
2021/09/06 01:32:43;;;;;;;1.20;1.10;;;20.00;60.20;;;;;;5042927;28;20029;-35
2021/09/06 01:35:09;;;;;;;1.55;1.30;;;20.10;60.20;;;;;;5042932;28;20033;-35
2021/09/06 01:37:37;;;;;;;2.58;1.02;;;20.10;60.90;;;;;;5042751;28;20093;-35
2021/09/06 01:40:03;;;;;;;;;;;20.10;61.00;;;;;;5048327;28;20021;-35
2021/09/06 01:42:29;;;;;;;1.30;0.90;;;20.20;61.10;;;;;;5062618;28;19913;-35
2021/09/06 01:44:55;;;;;;;1.65;1.00;;;20.20;61.10;;;;;;5062312;28;20041;-35
2021/09/06 01:47:21;;;;;;;1.55;1.00;;;20.20;61.30;;;;;;5062533;28;20569;-35
2021/09/06 01:49:47;;;;;;;1.33;1.23;;;20.20;62.10;;;;;;5062112;28;20024;-35
2021/09/06 01:52:13;;;;;;;1.23;1.13;;;20.20;61.50;;;;;;5062583;28;20068;-35
2021/09/06 01:54:40;;;;;;;1.15;1.05;;;20.30;61.60;;;;;;5061333;28;20029;-35
2021/09/06 01:57:06;;;;;;;1.40;1.30;;;20.30;61.70;;;;;;5062286;28;20079;-35
2021/09/06 01:59:32;;;;;;;1.10;1.00;;;20.30;61.80;;;;;;5061553;28;20029;-35
2021/09/06 02:01:58;;;;;;;1.05;0.95;;;20.30;61.80;;;;;;5062312;28;20025;-35
2021/09/06 02:04:24;;;;;;;1.30;1.20;;;20.30;61.80;;;;;;5062322;28;20094;-35
2021/09/06 02:06:51;;;;;;;1.85;1.17;;;20.40;61.90;;;;;;5062359;28;20117;-35
2021/09/06 02:09:17;;;;;;;0.90;0.90;;;20.40;61.80;;;;;;5062185;28;20469;-35
2021/09/06 02:11:43;;;;;;;1.17;1.08;;;20.40;62.00;;;;;;5059686;28;20036;-35
2021/09/06 02:14:09;;;;;;;1.42;1.10;;;20.40;62.10;;;;;;5062144;28;20029;-35
2021/09/06 02:16:36;;;;;;;1.20;1.10;;;20.40;62.10;;;;;;5062147;28;20038;-35
2021/09/06 02:19:02;;;;;;;1.15;1.05;;;20.40;61.90;;;;;;5061946;28;20560;-35
2021/09/06 02:21:28;;;;;;;1.30;1.20;;;20.50;62.00;;;;;;5062013;28;20025;-35
2021/09/06 02:23:55;;;;;;;1.10;1.00;;;20.50;62.00;;;;;;5061275;28;20036;-35
2021/09/06 02:26:22;;;;;;;1.00;0.90;;;20.50;62.00;;;;;;5062047;28;20044;-35
2021/09/06 02:28:48;;;;;;;0.90;0.90;;;20.50;61.90;;;;;;5062079;28;20040;-35
2021/09/06 02:31:15;;;;;;;1.40;1.20;;;20.50;61.90;;;;;;5061802;28;20040;-35
2021/09/06 02:33:41;;;;;;;1.00;0.90;;;20.60;62.10;;;;;;5062108;28;20036;-35
2021/09/06 02:36:07;;;;;;;1.30;1.17;;;20.60;62.00;;;;;;5062000;28;20029;-35
2021/09/06 02:38:33;;;;;;;0.98;0.90;;;20.60;62.00;;;;;;5061927;28;20048;-35
2021/09/06 02:40:59;;;;;;;1.40;1.30;;;20.60;62.00;;;;;;5061583;28;20033;-35
2021/09/06 02:43:25;;;;;;;1.10;1.00;;;20.60;62.10;;;;;;5061774;28;20027;-35
2021/09/06 02:45:51;;;;;;;1.40;1.30;;;20.70;62.20;;;;;;5061856;28;20033;-35
2021/09/06 02:48:18;;;;;;;1.20;1.10;;;20.70;62.20;;;;;;5061900;28;20041;-35
2021/09/06 02:50:44;;;;;;;1.40;1.30;;;20.70;62.20;;;;;;5057935;28;20765;-35
2021/09/06 02:53:10;;;;;;;1.20;1.10;;;20.70;62.40;;;;;;5041990;28;20026;-35
2021/09/06 02:55:36;;;;;;;1.05;0.95;;;20.70;62.40;;;;;;5053219;28;20053;-35
2021/09/06 02:58:02;;;;;;;1.10;1.00;;;20.70;62.40;;;;;;5061724;28;20029;-35
2021/09/06 03:00:29;;;;;;;1.33;1.10;;;20.70;62.50;;;;;;5061383;28;20092;-35
2021/09/06 03:02:55;;;;;;;1.37;1.20;;;20.70;62.40;;;;;;5061900;28;20045;-35
2021/09/06 03:05:21;;;;;;;1.40;1.30;;;20.70;62.40;;;;;;5061765;28;20305;-35
2021/09/06 03:07:47;;;;;;;1.05;0.98;;;20.80;62.40;;;;;;5061756;28;20063;-35
2021/09/06 03:10:13;;;;;;;1.35;1.25;;;20.70;62.40;;;;;;5061169;28;20044;-35
2021/09/06 03:12:40;;;;;;;1.30;1.20;;;20.80;62.60;;;;;;5063825;28;20136;-35
2021/09/06 03:15:06;;;;;;;1.30;1.20;;;20.80;62.60;;;;;;5065201;28;20035;-35
2021/09/06 03:17:32;;;;;;;1.70;1.40;;;20.80;63.30;;;;;;5065150;28;20035;-35
2021/09/06 03:19:58;;;;;;;1.50;1.40;;;20.80;62.60;;;;;;5064868;28;20261;-35
2021/09/06 03:22:24;;;;;;;1.17;1.08;;;20.80;62.50;;;;;;5047723;28;20025;-35
2021/09/06 03:24:51;;;;;;;1.58;1.48;;;20.80;62.40;;;;;;5050190;28;20055;-35
2021/09/06 03:27:17;;;;;;;1.50;1.40;;;20.80;62.50;;;;;;5064840;28;20041;-35
2021/09/06 03:29:43;;;;;;;1.60;1.33;;;20.90;62.50;;;;;;5064933;28;20029;-35
2021/09/06 03:32:11;;;;;;;1.40;1.20;;;20.90;62.40;;;;;;5064752;28;20029;-35
2021/09/06 03:34:37;;;;;;;1.30;1.20;;;20.90;62.30;;;;;;5047356;28;20060;-35
2021/09/06 03:37:04;;;;;;;1.83;1.03;;;20.90;62.30;;;;;;5064885;28;20025;-35
2021/09/06 03:39:30;;;;;;;1.27;1.17;;;20.90;62.30;;;;;;5064782;28;20021;-35
2021/09/06 03:41:56;;;;;;;1.75;1.40;;;20.90;62.30;;;;;;5064420;28;20055;-35
2021/09/06 03:44:24;;;;;;;1.50;1.20;;;20.90;62.30;;;;;;5064658;28;20035;-35
2021/09/06 03:46:51;;;;;;;1.60;1.50;;;20.90;62.30;;;;;;5064528;28;20045;-35
2021/09/06 03:49:17;;;;;;;1.20;1.10;;;20.90;62.40;;;;;;5064543;28;20025;-36
2021/09/06 03:51:44;;;;;;;1.80;1.70;;;20.90;62.30;;;;;;5064444;28;20029;-35
2021/09/06 03:54:10;;;;;;;1.40;1.30;;;20.90;62.40;;;;;;5064346;28;20040;-35
2021/09/06 03:56:36;;;;;;;1.30;1.20;;;20.90;62.40;;;;;;5052875;28;20064;-35
2021/09/06 03:59:02;;;;;;;1.30;1.20;;;21.00;62.40;;;;;;5062095;28;20048;-35
2021/09/06 04:01:28;;;;;;;1.83;1.20;;;21.00;62.50;;;;;;5064244;28;20037;-35
2021/09/06 04:03:54;;;;;;;1.50;1.27;;;20.90;62.20;;;;;;5064360;28;20029;-35
2021/09/06 04:06:20;;;;;;;1.50;1.40;;;21.00;62.20;;;;;;5063978;28;20104;-35
2021/09/06 04:08:47;;;;;;;1.40;1.30;;;21.00;62.00;;;;;;5064152;28;20032;-35
2021/09/06 04:11:14;;;;;;;1.15;1.05;;;21.00;61.90;;;;;;5064053;28;20029;-35
2021/09/06 04:13:40;;;;;;;1.30;1.20;;;21.00;61.90;;;;;;5064123;28;20037;-35
2021/09/06 04:16:08;;;;;;;1.83;1.67;;;21.00;61.80;;;;;;5063791;28;20032;-35
2021/09/06 04:18:34;;;;;;;1.30;1.17;;;21.00;61.80;;;;;;5063809;28;20089;-35
2021/09/06 04:21:01;;;;;;;1.58;1.48;;;21.00;61.90;;;;;;5053869;28;20064;-35
2021/09/06 04:23:27;;;;;;;1.42;1.30;;;21.00;61.90;;;;;;5043667;28;20033;-35
2021/09/06 04:25:53;;;;;;;2.25;1.52;;;21.00;62.00;;;;;;5044034;28;20086;-35
2021/09/06 04:28:19;;;;;;;1.40;1.30;;;21.00;62.00;;;;;;5055603;28;20029;-35
2021/09/06 04:30:45;;;;;;;1.83;1.50;;;21.00;62.10;;;;;;5063875;28;20025;-35
2021/09/06 04:33:11;;;;;;;1.60;1.50;;;21.00;62.30;;;;;;5063661;28;20124;-35
2021/09/06 04:35:38;;;;;;;1.50;1.40;;;21.10;62.40;;;;;;5063972;28;20099;-36
2021/09/06 04:38:04;;;;;;;1.67;1.50;;;21.10;62.30;;;;;;5063608;28;20040;-35
2021/09/06 04:40:30;;;;;;;2.10;1.40;;;21.10;62.10;;;;;;5063773;28;20029;-35
2021/09/06 04:42:56;;;;;;;1.50;1.40;;;21.00;61.90;;;;;;5063215;28;20053;-35
2021/09/06 04:45:24;;;;;;;1.58;1.48;;;21.00;61.90;;;;;;5063536;28;20029;-36
2021/09/06 04:47:50;;;;;;;1.42;1.33;;;21.10;62.00;;;;;;5063381;28;20032;-35
2021/09/06 04:50:17;;;;;;;1.40;1.30;;;21.00;61.80;;;;;;5063670;28;20053;-35
2021/09/06 04:52:43;;;;;;;1.27;1.17;;;21.00;61.90;;;;;;5043343;28;20033;-35
2021/09/06 04:55:09;;;;;;;1.92;1.75;;;21.10;62.10;;;;;;5043339;28;20052;-35
2021/09/06 04:57:35;;;;;;;1.63;1.53;;;21.00;62.00;;;;;;5049095;28;20041;-36
2021/09/06 05:00:02;;;;;;;1.08;1.02;;;21.10;62.30;;;;;;5063192;28;20032;-35
2021/09/06 05:02:28;;;;;;;1.80;1.70;;;21.10;62.30;;;;;;5063065;28;20039;-35
2021/09/06 05:04:54;;;;;;;1.95;1.60;;;21.00;62.50;;;;;;5063167;28;20096;-35
2021/09/06 05:07:20;;;;;;;1.80;1.70;;;21.10;62.90;;;;;;5063079;28;20040;-35
2021/09/06 05:09:47;;;;;;;1.80;1.60;;;21.10;63.00;;;;;;5063365;28;20045;-37
2021/09/06 05:12:13;;;;;;;1.58;1.48;;;21.10;63.00;;;;;;5062846;28;20033;-35
2021/09/06 05:14:39;;;;;;;1.98;1.70;;;21.10;62.90;;;;;;5062900;28;20028;-35
2021/09/06 05:17:05;;;;;;;2.00;1.80;;;21.10;62.50;;;;;;5062998;28;20464;-36
2021/09/06 05:19:32;;;;;;;1.65;1.50;;;21.10;62.20;;;;;;5063052;28;20402;-35
2021/09/06 05:21:58;;;;;;;1.52;1.42;;;21.10;62.10;;;;;;5062728;28;20052;-35
2021/09/06 05:24:24;;;;;;;1.40;1.30;;;21.10;62.10;;;;;;5063071;28;20039;-35
2021/09/06 05:26:50;;;;;;;1.65;1.52;;;21.10;62.00;;;;;;5062666;28;20041;-35
2021/09/06 05:29:16;;;;;;;1.58;1.48;;;21.10;62.10;;;;;;5062633;28;20036;-35
2021/09/06 05:31:42;;;;;;;1.45;1.35;;;21.10;62.30;;;;;;5062788;28;20679;-35
2021/09/06 05:34:08;;;;;;;1.38;1.27;;;21.10;62.40;;;;;;5061952;28;20032;-35
2021/09/06 05:36:35;;;;;;;1.60;1.50;;;21.10;62.60;;;;;;5062793;28;20049;-35
2021/09/06 05:39:01;;;;;;;1.85;1.75;;;21.10;63.00;;;;;;5062846;28;20033;-35
2021/09/06 05:41:27;;;;;;;1.63;1.50;;;21.10;63.30;;;;;;5062581;28;20105;-35
2021/09/06 05:43:53;;;;;;;2.72;1.70;;;21.10;63.40;;;;;;5062345;28;20040;-35
2021/09/06 05:46:19;;;;;;;2.28;1.70;;;21.10;63.40;;;;;;5062513;28;20037;-35
2021/09/06 05:48:46;;;;;;;1.40;1.30;;;21.10;63.00;;;;;;5062855;28;20702;-35
2021/09/06 05:51:12;;;;;;;1.50;1.40;;;21.10;62.60;;;;;;5062675;28;20029;-35
2021/09/06 05:53:38;;;;;;;2.40;1.65;;;21.10;62.30;;;;;;5062290;28;20083;-35
2021/09/06 05:56:04;;;;;;;1.67;1.58;;;21.10;62.20;;;;;;5062324;28;20045;-35
2021/09/06 05:58:31;;;;;;;1.60;1.50;;;21.10;62.10;;;;;;5062468;28;20056;-35
2021/09/06 06:00:57;;;;;;;1.70;1.60;;;21.10;62.10;;;;;;5054942;28;20297;-35
2021/09/06 06:03:23;;;;;;;1.70;1.60;;;21.10;62.10;;;;;;5042378;28;20112;-35
2021/09/06 06:05:49;;;;;;;1.50;1.40;;;21.10;62.20;;;;;;5046220;28;20044;-35
2021/09/06 06:08:15;;;;;;;1.92;1.77;;;21.10;62.20;;;;;;5062379;28;20021;-35
2021/09/06 06:10:41;;;;;;;1.88;1.60;;;21.10;62.30;;;;;;5062286;28;20117;-35
2021/09/06 06:13:08;;;;;;;1.67;1.58;;;21.10;62.30;;;;;;5061419;28;20053;-35
2021/09/06 06:15:34;;;;;;;1.70;1.60;;;21.10;62.30;;;;;;5062443;28;20086;-35
2021/09/06 06:18:00;;;;;;;1.80;1.70;;;21.10;62.20;;;;;;5062357;28;20025;-35
2021/09/06 06:20:26;;;;;;;1.73;1.50;;;21.10;62.30;;;;;;5062143;28;20059;-35
2021/09/06 06:22:52;;;;;;;2.05;1.77;;;21.10;62.20;;;;;;5061356;28;20029;-35
2021/09/06 06:25:19;;;;;;;1.67;1.58;;;21.10;62.20;;;;;;5061761;28;20029;-35
2021/09/06 06:27:45;;;;;;;1.73;1.63;;;21.10;62.20;;;;;;5062210;28;20055;-35
2021/09/06 06:30:12;;;;;;;1.65;1.55;;;21.10;62.10;;;;;;5062334;28;20052;-35
2021/09/06 06:32:38;;;;;;;1.55;1.45;;;21.10;62.20;;;;;;5062181;28;20055;-35
2021/09/06 06:35:04;;;;;;;1.83;1.70;;;21.10;62.20;;;;;;5061941;28;20565;-35
2021/09/06 06:37:30;;;;;;;1.67;1.57;;;21.10;62.20;;;;;;5062182;28;20033;-35
2021/09/06 06:39:56;;;;;;;2.08;1.88;;;21.10;62.20;;;;;;5062006;28;20060;-35
2021/09/06 06:42:22;;;;;;;1.88;1.55;;;21.10;62.30;;;;;;5062076;28;20039;-35
2021/09/06 06:44:49;;;;;;;1.60;1.50;;;21.10;62.30;;;;;;5061558;28;20094;-35
2021/09/06 06:47:15;;;;;;;1.67;1.58;;;21.10;62.40;;;;;;5065328;28;20094;-35
2021/09/06 06:49:41;;;;;;;1.63;1.52;;;21.10;62.40;;;;;;5066100;28;20105;-35
2021/09/06 06:52:07;;;;;;;2.45;1.98;;;21.10;62.30;;;;;;5065882;28;20033;-35
2021/09/06 06:54:33;;;;;;;3.60;1.80;;;21.10;62.30;;;;;;5065329;28;20020;-35
2021/09/06 06:57:00;;;;;;;2.08;1.77;;;21.10;62.30;;;;;;5065547;28;20077;-35
2021/09/06 06:59:26;;;;;;;1.80;1.70;;;21.10;62.30;;;;;;5063160;28;20633;-35
2021/09/06 07:01:53;;;;;;;1.70;1.60;;;21.10;62.30;;;;;;5065689;28;20045;-36
2021/09/06 07:04:19;;;;;;;;;;;21.10;62.30;;;;;;5065693;28;20417;-35
2021/09/06 07:06:45;;;;;;;1.70;1.60;;;21.10;62.30;;;;;;5065391;28;19912;-35
2021/09/06 07:09:11;;;;;;;1.70;1.60;;;21.10;62.40;;;;;;5065625;28;20025;-35
2021/09/06 07:11:37;;;;;;;1.98;1.63;;;21.10;62.40;;;;;;5065560;28;20032;-35
2021/09/06 07:14:03;;;;;;;1.70;1.60;;;21.10;62.40;;;;;;5065203;28;20463;-35
2021/09/06 07:16:30;;;;;;;1.90;1.70;;;21.10;62.40;;;;;;5065410;28;20025;-35
2021/09/06 07:18:56;;;;;;;2.08;1.90;;;21.10;62.40;;;;;;5065419;28;20029;-35
2021/09/06 07:21:22;;;;;;;2.10;1.90;;;21.10;62.50;;;;;;5065195;28;20033;-35
2021/09/06 07:23:48;;;;;;;1.70;1.60;;;21.10;62.50;;;;;;5065014;28;20021;-35
2021/09/06 07:26:15;;;;;;;2.28;2.00;;;21.10;62.50;;;;;;5065408;28;20048;-35
2021/09/06 07:28:41;;;;;;;1.90;1.65;;;21.10;62.50;;;;;;5065149;28;20116;-36
2021/09/06 07:31:08;;;;;;;1.90;1.70;;;21.10;62.50;;;;;;5065108;28;20061;-35
2021/09/06 07:33:34;;;;;;;;;;;21.10;62.50;;;;;;5065372;28;20025;-35
2021/09/06 07:36:00;;;;;;;1.85;1.67;;;21.10;62.50;;;;;;5065228;28;20324;-35
2021/09/06 07:38:26;;;;;;;1.88;1.70;;;21.10;62.50;;;;;;5064710;28;20024;-35
2021/09/06 07:40:52;;;;;;;2.00;1.80;;;21.10;62.50;;;;;;5065213;28;20029;-35
2021/09/06 07:43:20;;;;;;;2.20;1.90;;;21.10;62.50;;;;;;5064941;28;20029;-35
2021/09/06 07:45:47;;;;;;;2.20;2.00;;;21.00;62.50;;;;;;5064595;28;20053;-35
2021/09/06 07:48:14;;;;;;;1.98;1.77;;;21.10;62.60;;;;;;5064946;28;20025;-35
2021/09/06 07:50:41;;;;;;;1.85;1.75;;;21.10;62.60;;;;;;5064948;28;20017;-35
2021/09/06 07:53:07;;;;;;;2.10;1.90;;;21.10;62.60;;;;;;5065039;28;20040;-35
2021/09/06 07:55:34;;;;;;;2.10;1.75;;;21.10;62.70;;;;;;5064436;28;20398;-36
2021/09/06 07:58:00;;;;;;;2.30;2.10;;;21.10;62.70;;;;;;5063784;28;20029;-35
2021/09/06 08:00:26;;;;;;;2.22;2.03;;;21.00;62.60;;;;;;5064504;28;20029;-35
2021/09/06 08:02:52;;;;;;;2.15;2.05;;;21.00;62.60;;;;;;5063488;28;20086;-35
2021/09/06 08:05:23;;;;;;;2.10;1.90;;;21.00;62.60;;;;;;5064363;28;20557;-35
2021/09/06 08:07:49;;;;;;;2.20;2.00;;;21.00;62.70;;;;;;5064498;28;20029;-35
2021/09/06 08:10:15;;;;;;;2.00;1.90;;;21.00;62.60;;;;;;5064552;28;20036;-35
2021/09/06 08:12:42;;;;;;;2.20;2.00;;;21.00;62.60;;;;;;5064394;28;20025;-36
2021/09/06 08:15:09;;;;;;;3.42;1.98;;;21.00;62.60;;;;;;5047821;28;20033;-35
2021/09/06 08:17:35;;;;;;;2.05;1.83;;;21.00;62.70;;;;;;5061118;28;20029;-35
2021/09/06 08:20:06;;;;;;;1.85;1.75;;;21.00;62.70;;;;;;5064435;28;20037;-35
2021/09/06 08:22:33;;;;;;;2.05;1.80;;;21.10;62.80;;;;;;5064008;28;20024;-35
2021/09/06 08:25:09;;;;;;;2.65;2.10;;;21.00;62.80;;;;;;5046042;28;20045;-35
2021/09/06 08:27:36;;;;;;;1.90;1.60;;;21.00;62.80;;;;;;5064211;28;20075;-35
2021/09/06 08:30:03;;;;;;;1.75;1.65;;;21.00;62.80;;;;;;5063793;28;20025;-35
2021/09/06 08:32:29;;;;;;;2.15;1.80;;;21.00;62.80;;;;;;5064181;28;20029;-36
2021/09/06 08:34:55;;;;;;;2.17;1.98;;;21.00;62.80;;;;;;5063768;28;20035;-35
2021/09/06 08:37:22;;;;;;;1.98;1.80;;;21.00;62.80;;;;;;5064100;28;20104;-35
2021/09/06 08:39:48;;;;;;;2.58;2.00;;;21.00;62.90;;;;;;5064102;28;20437;-35
2021/09/06 08:42:14;;;;;;;1.85;1.75;;;21.10;63.00;;;;;;5063978;28;20033;-35
2021/09/06 08:44:41;;;;;;;2.03;1.83;;;21.00;62.90;;;;;;5063648;28;20021;-35
2021/09/06 08:47:08;;;;;;;1.80;1.70;;;21.00;62.90;;;;;;5063815;28;20041;-35
2021/09/06 08:49:34;;;;;;;2.60;1.90;;;21.00;62.90;;;;;;5063855;28;20024;-35
2021/09/06 08:52:00;;;;;;;2.10;1.90;;;21.00;62.90;;;;;;5063775;28;20088;-35
2021/09/06 08:54:26;;;;;;;1.80;1.70;;;21.00;62.90;;;;;;5063634;28;20028;-35
2021/09/06 08:56:52;;;;;;;2.30;2.10;;;21.00;62.90;;;;;;5030482;28;20060;-36
2021/09/06 08:59:19;;;;;;;2.67;2.17;;;21.00;62.90;;;;;;5043432;28;20089;-36
2021/09/06 09:01:53;;;;;;;2.47;2.28;;;21.00;63.00;;;;;;5043539;28;20634;-35
2021/09/06 09:04:24;;;;;;;2.05;1.88;;;21.10;63.00;;;;;;5026692;28;20052;-35
2021/09/06 09:06:54;;;;;;;2.20;2.00;;;21.10;63.00;;;;;;5025479;28;20041;-35
2021/09/06 09:09:28;;;;;;;2.30;2.10;;;21.00;63.00;;;;;;5043531;28;20100;-35
2021/09/06 09:12:11;;;;;;;1.80;1.70;;;21.00;63.00;;;;;;5043385;28;20032;-35
2021/09/06 09:14:41;;;;;;;2.05;1.85;;;21.00;63.00;;;;;;5043268;28;20053;-35
2021/09/06 09:17:11;;;;;;;2.30;2.10;;;21.00;63.00;;;;;;5042806;28;20120;-35
2021/09/06 09:19:38;;;;;;;2.13;2.00;;;21.00;63.10;;;;;;5026084;28;20025;-35
2021/09/06 09:22:05;;;;;;;2.33;2.10;;;21.00;63.10;;;;;;5043144;28;20040;-35
2021/09/06 09:24:36;;;;;;;2.08;1.88;;;21.00;63.00;;;;;;5025307;28;20033;-35
2021/09/06 09:27:03;;;;;;;2.22;2.03;;;21.00;63.00;;;;;;5042719;28;20808;-35
2021/09/06 09:29:29;;;;;;;1.88;1.77;;;21.00;63.00;;;;;;5042690;28;20061;-35
2021/09/06 09:31:57;;;;;;;2.22;2.00;;;21.00;63.10;;;;;;5043149;28;20630;-36
2021/09/06 09:34:23;;;;;;;3.30;1.88;;;21.00;63.10;;;;;;5043091;28;20112;-35
2021/09/06 09:36:53;;;;;;;2.25;1.98;;;21.00;63.10;;;;;;5042808;28;20096;-36
2021/09/06 09:39:20;;;;;;;2.03;1.92;;;21.00;63.10;;;;;;5025622;28;20065;-37
2021/09/06 09:41:51;;;;;;;1.95;1.83;;;21.00;63.10;;;;;;5025031;28;20057;-35
2021/09/06 09:44:21;;;;;;;2.10;1.95;;;21.00;63.10;;;;;;5042434;28;20041;-35
2021/09/06 09:46:58;;;;;;;2.25;2.03;;;21.00;63.10;;;;;;5042725;28;20107;-35
2021/09/06 09:49:25;;;;;;;2.03;1.90;;;21.00;63.00;;;;;;5042793;28;20025;-35
2021/09/06 09:51:51;;;;;;;1.93;1.73;;;21.00;63.10;;;;;;5042672;28;20676;-35
2021/09/06 09:54:17;;;;;;;2.20;2.00;;;21.00;63.00;;;;;;5042000;28;20277;-35
2021/09/06 09:56:44;;;;;;;2.17;1.98;;;21.00;63.10;;;;;;5042542;28;20083;-35
2021/09/06 09:59:14;;;;;;;2.70;2.30;;;21.00;63.10;;;;;;5042309;28;20056;-35
2021/09/06 10:01:53;;;;;;;1.40;1.30;;;21.00;63.10;;;;;;5042720;28;20026;-35
2021/09/06 10:04:27;;;;;;;2.17;1.98;;;21.00;63.10;;;;;;5009350;28;20036;-35
2021/09/06 10:06:53;;;;;;;2.22;1.88;;;21.00;63.10;;;;;;5029594;28;20041;-36
2021/09/06 10:09:19;;;;;;;1.95;1.83;;;21.00;63.20;;;;;;5063702;28;20249;-35
2021/09/06 10:11:46;;;;;;;2.15;1.92;;;21.00;63.20;;;;;;5082613;28;20084;-37
2021/09/06 10:14:21;;;;;;;2.20;2.00;;;21.00;63.20;;;;;;5082220;28;20021;-35
2021/09/06 10:17:07;;;;;;;1.75;1.65;;;21.00;63.30;;;;;;5077645;28;20035;-35
2021/09/06 10:19:44;;;;;;;2.40;1.90;;;21.00;63.40;;;;;;5042291;28;20036;-35
2021/09/06 10:22:21;;;;;;;1.80;1.70;;;21.00;63.30;;;;;;5045866;28;20089;-35
2021/09/06 10:24:58;;;;;;;2.10;1.90;;;21.00;63.30;;;;;;5052520;28;20035;-35
2021/09/06 10:27:25;;;;;;;2.20;2.00;;;21.00;63.30;;;;;;5066429;28;20076;-35
2021/09/06 10:30:16;;;;;;;2.03;1.83;;;21.00;63.40;;;;;;5066352;28;20039;-35
2021/09/06 10:32:46;;;;;;;1.95;1.80;;;21.00;63.30;;;;;;5066085;28;20048;-35
2021/09/06 10:35:20;;;;;;;2.17;1.80;;;21.00;63.40;;;;;;5065947;28;20540;-35
2021/09/06 10:38:11;;;;;;;2.10;1.90;;;21.00;63.30;;;;;;5066283;28;20113;-35
2021/09/06 10:40:38;;;;;;;2.50;2.30;;;21.00;63.30;;;;;;5066040;28;20032;-35
2021/09/06 10:43:18;;;;;;;2.17;1.98;;;21.00;63.40;;;;;;5066007;28;20032;-36
2021/09/06 10:45:48;;;;;;;2.25;2.05;;;21.00;63.30;;;;;;5065787;28;20029;-35
2021/09/06 10:48:22;;;;;;;1.92;1.75;;;21.00;63.40;;;;;;5048008;28;20027;-35
2021/09/06 10:50:48;;;;;;;2.20;2.00;;;21.00;63.40;;;;;;5065875;28;20035;-35
2021/09/06 10:53:22;;;;;;;2.33;2.00;;;21.00;63.40;;;;;;5066079;28;20048;-35
2021/09/06 10:55:53;;;;;;;2.10;1.90;;;21.00;63.40;;;;;;5050418;28;20056;-35
2021/09/06 10:58:26;;;;;;;2.10;1.90;;;21.00;63.40;;;;;;5045785;28;20033;-35
2021/09/06 11:00:57;;;;;;;3.42;2.03;;;21.00;63.40;;;;;;5045617;28;20049;-35
2021/09/06 11:03:24;;;;;;;2.30;2.10;;;21.00;63.40;;;;;;5045629;28;20057;-35
2021/09/06 11:05:55;;;;;;;2.03;1.88;;;21.00;63.40;;;;;;5045365;28;20061;-35
2021/09/06 11:08:30;;;;;;;2.10;1.90;;;21.00;63.40;;;;;;5045583;28;20481;-35
2021/09/06 11:10:57;;;;;;;2.15;1.98;;;21.00;63.30;;;;;;5045435;28;20473;-35
2021/09/06 11:13:32;;;;;;;1.92;1.80;;;21.00;63.30;;;;;;5045702;28;20035;-35
2021/09/06 11:15:58;;;;;;;2.45;2.10;;;21.00;63.40;;;;;;5045221;28;20033;-35
2021/09/06 11:18:24;;;;;;;2.13;1.92;;;21.00;63.30;;;;;;5045449;28;20025;-35
2021/09/06 11:20:50;;;;;;;2.00;1.80;;;21.00;63.30;;;;;;5032041;28;20048;-35
2021/09/06 11:23:17;;;;;;;2.13;1.92;;;21.00;63.30;;;;;;5065232;28;20029;-35
2021/09/06 11:25:43;;;;;;;2.00;1.90;;;21.00;63.40;;;;;;5050701;28;20110;-35
2021/09/06 11:28:13;;;;;;;2.08;1.83;;;21.00;63.40;;;;;;5045478;28;20014;-35
2021/09/06 11:30:44;;;;;;;3.08;2.38;;;21.00;63.30;;;;;;5045255;28;20026;-35
2021/09/06 11:33:10;;;;;;;2.33;2.13;;;21.00;63.40;;;;;;5043946;28;20040;-35
2021/09/06 11:35:37;;;;;;;2.15;1.95;;;21.00;63.40;;;;;;5044974;28;20026;-35
2021/09/06 11:38:04;;;;;;;2.08;1.88;;;21.00;63.40;;;;;;5043901;28;20057;-35
2021/09/06 11:40:30;;;;;;;2.20;2.00;;;21.00;64.10;;;;;;5045096;28;20056;-36
2021/09/06 11:42:59;;;;;;;2.10;1.90;;;21.00;63.30;;;;;;5045026;28;20029;-35
2021/09/06 11:45:26;;;;;;;1.65;1.55;;;21.00;63.40;;;;;;5026905;28;20033;-35
2021/09/06 11:47:52;;;;;;;1.98;1.70;;;21.00;63.30;;;;;;5044744;28;20037;-35
2021/09/06 11:50:21;;;;;;;2.33;2.07;;;21.00;63.40;;;;;;5044949;28;20022;-35
2021/09/06 11:52:47;;;;;;;1.80;1.65;;;21.00;63.40;;;;;;5064933;28;20261;-35
2021/09/06 11:55:18;;;;;;;2.00;1.90;;;21.00;63.40;;;;;;5065408;28;20028;-35
2021/09/06 11:57:44;;;;;;;1.92;1.75;;;21.00;63.40;;;;;;5065188;28;20699;-35
2021/09/06 12:00:12;;;;;;;2.10;1.90;;;21.00;63.30;;;;;;5064768;28;20091;-35
2021/09/06 12:02:48;;;;;;;;;;;21.00;63.40;;;;;;5065119;28;20086;-35
2021/09/06 12:05:16;;;;;;;1.73;1.63;;;21.00;63.30;;;;;;5064350;28;20019;-35
2021/09/06 12:07:50;;;;;;;1.80;1.70;;;21.00;64.10;;;;;;5064639;28;20036;-35
2021/09/06 12:10:29;;;;;;;1.90;1.80;;;21.00;63.40;;;;;;5064319;28;20028;-35
2021/09/06 12:13:03;;;;;;;2.35;2.00;;;21.00;63.40;;;;;;5073189;28;20529;-35
2021/09/06 12:15:30;;;;;;;1.83;1.70;;;21.00;63.40;;;;;;5078822;28;20143;-35
2021/09/06 12:18:07;;;;;;;1.90;1.80;;;21.00;63.40;;;;;;5064337;28;20084;-35
2021/09/06 12:20:38;;;;;;;1.88;1.70;;;21.00;63.40;;;;;;5066360;28;20028;-35
2021/09/06 12:23:05;;;;;;;2.20;2.00;;;21.00;63.40;;;;;;5084266;28;20107;-35
2021/09/06 12:25:31;;;;;;;1.73;1.63;;;21.00;63.40;;;;;;5083674;28;20063;-35
2021/09/06 12:28:11;;;;;;;1.70;1.60;;;21.00;63.40;;;;;;5084129;28;20098;-35
2021/09/06 12:30:39;;;;;;;2.17;1.98;;;21.00;63.40;;;;;;5084397;28;20052;-35
2021/09/06 12:33:05;;;;;;;;;;;21.00;63.40;;;;;;5084471;28;20636;-35
2021/09/06 12:35:31;;;;;;;1.80;1.63;;;21.00;63.30;;;;;;5083799;28;19915;-36
2021/09/06 12:37:57;;;;;;;2.15;1.95;;;21.00;63.30;;;;;;5066239;28;20464;-35
2021/09/06 12:40:24;;;;;;;1.90;1.73;;;21.00;63.30;;;;;;5083770;28;20096;-35
2021/09/06 12:42:50;;;;;;;1.85;1.75;;;21.00;63.40;;;;;;5083871;28;20040;-35
2021/09/06 12:45:20;;;;;;;1.60;1.50;;;21.00;63.40;;;;;;5083601;28;20117;-35
2021/09/06 12:47:46;;;;;;;1.98;1.80;;;21.00;63.40;;;;;;5065517;28;20549;-35